sensor_id;sensor_type;location;lat;lon;timestamp;P1;durP1;ratioP1;P2;durP2;ratioP2
12474;SDS011;6302;42.624;23.334;2022-08-14T00:01:03;14.97;;;13.57;;
12474;SDS011;6302;42.624;23.334;2022-08-14T00:03:30;14.70;;;13.30;;
12474;SDS011;6302;42.624;23.334;2022-08-14T00:05:58;15.73;;;14.10;;
12474;SDS011;6302;42.624;23.334;2022-08-14T00:08:26;15.90;;;14.37;;
12474;SDS011;6302;42.624;23.334;2022-08-14T00:10:54;14.77;;;13.43;;
12474;SDS011;6302;42.624;23.334;2022-08-14T00:13:21;15.43;;;13.83;;
12474;SDS011;6302;42.624;23.334;2022-08-14T00:15:54;14.33;;;12.93;;
12474;SDS011;6302;42.624;23.334;2022-08-14T00:18:23;14.97;;;13.43;;
12474;SDS011;6302;42.624;23.334;2022-08-14T00:20:51;13.40;;;12.20;;
12474;SDS011;6302;42.624;23.334;2022-08-14T00:23:19;11.73;;;10.50;;
12474;SDS011;6302;42.624;23.334;2022-08-14T00:25:46;12.13;;;10.90;;
12474;SDS011;6302;42.624;23.334;2022-08-14T00:28:15;13.00;;;11.80;;
12474;SDS011;6302;42.624;23.334;2022-08-14T00:30:43;13.03;;;11.73;;
12474;SDS011;6302;42.624;23.334;2022-08-14T00:33:12;13.57;;;12.27;;
12474;SDS011;6302;42.624;23.334;2022-08-14T00:35:39;13.80;;;12.50;;
12474;SDS011;6302;42.624;23.334;2022-08-14T00:38:05;13.80;;;12.57;;
12474;SDS011;6302;42.624;23.334;2022-08-14T00:40:32;14.40;;;13.10;;
12474;SDS011;6302;42.624;23.334;2022-08-14T00:42:59;14.37;;;13.07;;
12474;SDS011;6302;42.624;23.334;2022-08-14T00:45:27;13.43;;;12.07;;
12474;SDS011;6302;42.624;23.334;2022-08-14T00:47:53;13.43;;;12.00;;
12474;SDS011;6302;42.624;23.334;2022-08-14T00:50:22;13.60;;;12.27;;
12474;SDS011;6302;42.624;23.334;2022-08-14T00:52:49;13.13;;;11.93;;
12474;SDS011;6302;42.624;23.334;2022-08-14T00:55:18;12.90;;;11.60;;
12474;SDS011;6302;42.624;23.334;2022-08-14T00:57:46;14.80;;;13.40;;
12474;SDS011;6302;42.624;23.334;2022-08-14T01:00:34;14.17;;;12.77;;
12474;SDS011;6302;42.624;23.334;2022-08-14T01:03:01;14.77;;;13.37;;
12474;SDS011;6302;42.624;23.334;2022-08-14T01:05:30;13.83;;;12.63;;
12474;SDS011;6302;42.624;23.334;2022-08-14T01:07:58;14.30;;;13.00;;
12474;SDS011;6302;42.624;23.334;2022-08-14T01:10:26;15.30;;;13.37;;
12474;SDS011;6302;42.624;23.334;2022-08-14T01:13:14;15.93;;;14.37;;
12474;SDS011;6302;42.624;23.334;2022-08-14T01:15:45;16.83;;;15.10;;
12474;SDS011;6302;42.624;23.334;2022-08-14T01:18:14;15.77;;;13.80;;
12474;SDS011;6302;42.624;23.334;2022-08-14T01:20:59;17.17;;;14.93;;
12474;SDS011;6302;42.624;23.334;2022-08-14T01:23:32;16.87;;;15.17;;
12474;SDS011;6302;42.624;23.334;2022-08-14T01:26:00;16.93;;;14.53;;
12474;SDS011;6302;42.624;23.334;2022-08-14T01:28:28;17.90;;;14.70;;
12474;SDS011;6302;42.624;23.334;2022-08-14T01:30:57;16.00;;;14.27;;
12474;SDS011;6302;42.624;23.334;2022-08-14T01:33:25;17.33;;;15.43;;
12474;SDS011;6302;42.624;23.334;2022-08-14T01:35:54;17.63;;;14.27;;
12474;SDS011;6302;42.624;23.334;2022-08-14T01:38:22;14.67;;;13.17;;
12474;SDS011;6302;42.624;23.334;2022-08-14T01:40:52;15.57;;;14.07;;
12474;SDS011;6302;42.624;23.334;2022-08-14T01:43:19;16.63;;;15.03;;
12474;SDS011;6302;42.624;23.334;2022-08-14T01:45:45;17.63;;;15.77;;
12474;SDS011;6302;42.624;23.334;2022-08-14T01:48:15;16.47;;;14.87;;
12474;SDS011;6302;42.624;23.334;2022-08-14T01:50:43;17.27;;;15.57;;
12474;SDS011;6302;42.624;23.334;2022-08-14T01:53:10;29.27;;;20.67;;
12474;SDS011;6302;42.624;23.334;2022-08-14T01:55:37;24.87;;;20.03;;
12474;SDS011;6302;42.624;23.334;2022-08-14T01:58:06;22.43;;;19.43;;
12474;SDS011;6302;42.624;23.334;2022-08-14T02:00:37;23.60;;;19.30;;
12474;SDS011;6302;42.624;23.334;2022-08-14T02:03:04;22.17;;;19.50;;
12474;SDS011;6302;42.624;23.334;2022-08-14T02:05:31;23.63;;;19.47;;
12474;SDS011;6302;42.624;23.334;2022-08-14T02:07:58;23.23;;;18.70;;
12474;SDS011;6302;42.624;23.334;2022-08-14T02:10:24;23.13;;;20.20;;
12474;SDS011;6302;42.624;23.334;2022-08-14T02:12:53;22.53;;;19.97;;
12474;SDS011;6302;42.624;23.334;2022-08-14T02:15:22;24.33;;;20.57;;
12474;SDS011;6302;42.624;23.334;2022-08-14T02:17:49;29.47;;;20.67;;
12474;SDS011;6302;42.624;23.334;2022-08-14T02:20:16;22.93;;;20.43;;
12474;SDS011;6302;42.624;23.334;2022-08-14T02:22:44;22.93;;;19.03;;
12474;SDS011;6302;42.624;23.334;2022-08-14T02:25:12;22.37;;;18.90;;
12474;SDS011;6302;42.624;23.334;2022-08-14T02:27:39;22.07;;;19.53;;
12474;SDS011;6302;42.624;23.334;2022-08-14T02:30:07;24.30;;;19.90;;
12474;SDS011;6302;42.624;23.334;2022-08-14T02:32:36;24.43;;;20.37;;
12474;SDS011;6302;42.624;23.334;2022-08-14T02:35:04;23.77;;;20.97;;
12474;SDS011;6302;42.624;23.334;2022-08-14T02:37:42;24.97;;;21.17;;
12474;SDS011;6302;42.624;23.334;2022-08-14T02:40:10;30.20;;;23.43;;
12474;SDS011;6302;42.624;23.334;2022-08-14T02:42:38;26.07;;;21.70;;
12474;SDS011;6302;42.624;23.334;2022-08-14T02:45:05;25.23;;;22.47;;
12474;SDS011;6302;42.624;23.334;2022-08-14T02:47:33;26.07;;;22.73;;
12474;SDS011;6302;42.624;23.334;2022-08-14T02:50:01;29.97;;;23.33;;
12474;SDS011;6302;42.624;23.334;2022-08-14T02:52:29;29.77;;;23.57;;
12474;SDS011;6302;42.624;23.334;2022-08-14T02:54:57;31.37;;;24.63;;
12474;SDS011;6302;42.624;23.334;2022-08-14T02:57:23;29.20;;;25.17;;
12474;SDS011;6302;42.624;23.334;2022-08-14T02:59:52;34.60;;;26.07;;
12474;SDS011;6302;42.624;23.334;2022-08-14T03:02:20;34.10;;;26.30;;
12474;SDS011;6302;42.624;23.334;2022-08-14T03:04:46;37.13;;;27.77;;
12474;SDS011;6302;42.624;23.334;2022-08-14T03:07:15;38.20;;;27.37;;
12474;SDS011;6302;42.624;23.334;2022-08-14T03:09:42;39.73;;;27.70;;
12474;SDS011;6302;42.624;23.334;2022-08-14T03:12:09;37.77;;;27.63;;
12474;SDS011;6302;42.624;23.334;2022-08-14T03:14:36;36.13;;;27.37;;
12474;SDS011;6302;42.624;23.334;2022-08-14T03:17:08;38.97;;;27.83;;
12474;SDS011;6302;42.624;23.334;2022-08-14T03:19:39;37.77;;;29.37;;
12474;SDS011;6302;42.624;23.334;2022-08-14T03:22:06;38.20;;;29.33;;
12474;SDS011;6302;42.624;23.334;2022-08-14T03:24:34;40.93;;;30.37;;
12474;SDS011;6302;42.624;23.334;2022-08-14T03:27:01;37.80;;;29.20;;
12474;SDS011;6302;42.624;23.334;2022-08-14T03:29:30;42.60;;;30.67;;
12474;SDS011;6302;42.624;23.334;2022-08-14T03:31:56;40.30;;;30.43;;
12474;SDS011;6302;42.624;23.334;2022-08-14T03:34:23;37.10;;;29.80;;
12474;SDS011;6302;42.624;23.334;2022-08-14T03:36:52;38.33;;;29.17;;
12474;SDS011;6302;42.624;23.334;2022-08-14T03:39:22;39.63;;;30.40;;
12474;SDS011;6302;42.624;23.334;2022-08-14T03:41:53;31.80;;;26.53;;
12474;SDS011;6302;42.624;23.334;2022-08-14T03:44:22;33.53;;;26.40;;
12474;SDS011;6302;42.624;23.334;2022-08-14T03:46:50;34.37;;;26.80;;
12474;SDS011;6302;42.624;23.334;2022-08-14T03:49:19;35.13;;;27.57;;
12474;SDS011;6302;42.624;23.334;2022-08-14T03:51:47;37.50;;;27.03;;
12474;SDS011;6302;42.624;23.334;2022-08-14T03:54:14;32.73;;;26.90;;
12474;SDS011;6302;42.624;23.334;2022-08-14T03:56:41;36.80;;;27.67;;
12474;SDS011;6302;42.624;23.334;2022-08-14T03:59:10;33.70;;;27.00;;
12474;SDS011;6302;42.624;23.334;2022-08-14T04:01:38;30.77;;;25.23;;
12474;SDS011;6302;42.624;23.334;2022-08-14T04:04:05;32.00;;;25.93;;
12474;SDS011;6302;42.624;23.334;2022-08-14T04:06:32;27.87;;;24.87;;
12474;SDS011;6302;42.624;23.334;2022-08-14T04:09:00;29.17;;;25.07;;
12474;SDS011;6302;42.624;23.334;2022-08-14T04:11:29;29.83;;;25.17;;
12474;SDS011;6302;42.624;23.334;2022-08-14T04:13:56;26.67;;;23.53;;
12474;SDS011;6302;42.624;23.334;2022-08-14T04:16:24;30.37;;;26.90;;
12474;SDS011;6302;42.624;23.334;2022-08-14T04:18:51;29.50;;;26.40;;
12474;SDS011;6302;42.624;23.334;2022-08-14T04:21:20;29.90;;;26.73;;
12474;SDS011;6302;42.624;23.334;2022-08-14T04:23:48;32.43;;;29.03;;
12474;SDS011;6302;42.624;23.334;2022-08-14T04:26:15;31.47;;;28.10;;
12474;SDS011;6302;42.624;23.334;2022-08-14T04:28:44;32.80;;;29.20;;
12474;SDS011;6302;42.624;23.334;2022-08-14T04:31:11;32.27;;;28.70;;
12474;SDS011;6302;42.624;23.334;2022-08-14T04:33:39;30.07;;;26.87;;
12474;SDS011;6302;42.624;23.334;2022-08-14T04:36:07;31.50;;;27.60;;
12474;SDS011;6302;42.624;23.334;2022-08-14T04:38:34;31.10;;;27.77;;
12474;SDS011;6302;42.624;23.334;2022-08-14T04:41:18;28.10;;;25.20;;
12474;SDS011;6302;42.624;23.334;2022-08-14T04:44:03;30.23;;;27.03;;
12474;SDS011;6302;42.624;23.334;2022-08-14T04:46:32;26.63;;;23.90;;
12474;SDS011;6302;42.624;23.334;2022-08-14T04:49:01;25.93;;;23.43;;
12474;SDS011;6302;42.624;23.334;2022-08-14T04:51:28;22.63;;;20.43;;
12474;SDS011;6302;42.624;23.334;2022-08-14T04:53:55;20.93;;;18.83;;
12474;SDS011;6302;42.624;23.334;2022-08-14T04:56:25;20.20;;;18.30;;
12474;SDS011;6302;42.624;23.334;2022-08-14T04:58:54;20.60;;;18.67;;
12474;SDS011;6302;42.624;23.334;2022-08-14T05:01:25;20.73;;;18.70;;
12474;SDS011;6302;42.624;23.334;2022-08-14T05:03:53;19.67;;;17.97;;
12474;SDS011;6302;42.624;23.334;2022-08-14T05:06:22;19.80;;;17.57;;
12474;SDS011;6302;42.624;23.334;2022-08-14T05:08:49;18.67;;;16.93;;
12474;SDS011;6302;42.624;23.334;2022-08-14T05:11:17;19.53;;;17.77;;
12474;SDS011;6302;42.624;23.334;2022-08-14T05:13:44;19.47;;;17.40;;
12474;SDS011;6302;42.624;23.334;2022-08-14T05:16:11;20.00;;;18.00;;
12474;SDS011;6302;42.624;23.334;2022-08-14T05:18:38;19.57;;;17.77;;
12474;SDS011;6302;42.624;23.334;2022-08-14T05:21:06;17.87;;;16.37;;
12474;SDS011;6302;42.624;23.334;2022-08-14T05:23:36;18.10;;;16.40;;
12474;SDS011;6302;42.624;23.334;2022-08-14T05:26:04;16.83;;;15.23;;
12474;SDS011;6302;42.624;23.334;2022-08-14T05:28:37;16.67;;;15.20;;
12474;SDS011;6302;42.624;23.334;2022-08-14T05:31:09;18.70;;;17.00;;
12474;SDS011;6302;42.624;23.334;2022-08-14T05:33:36;19.87;;;17.97;;
12474;SDS011;6302;42.624;23.334;2022-08-14T05:36:04;18.83;;;17.13;;
12474;SDS011;6302;42.624;23.334;2022-08-14T05:38:33;19.47;;;17.60;;
12474;SDS011;6302;42.624;23.334;2022-08-14T05:41:02;19.30;;;17.30;;
12474;SDS011;6302;42.624;23.334;2022-08-14T05:43:30;19.03;;;17.13;;
12474;SDS011;6302;42.624;23.334;2022-08-14T05:45:58;19.43;;;17.53;;
12474;SDS011;6302;42.624;23.334;2022-08-14T05:48:26;19.80;;;18.00;;
12474;SDS011;6302;42.624;23.334;2022-08-14T05:50:53;19.17;;;17.37;;
12474;SDS011;6302;42.624;23.334;2022-08-14T05:53:21;19.00;;;17.13;;
12474;SDS011;6302;42.624;23.334;2022-08-14T05:55:49;19.33;;;17.53;;
12474;SDS011;6302;42.624;23.334;2022-08-14T05:58:18;19.87;;;17.97;;
12474;SDS011;6302;42.624;23.334;2022-08-14T06:00:45;20.77;;;18.77;;
12474;SDS011;6302;42.624;23.334;2022-08-14T06:03:14;20.73;;;18.83;;
12474;SDS011;6302;42.624;23.334;2022-08-14T06:05:42;22.10;;;20.00;;
12474;SDS011;6302;42.624;23.334;2022-08-14T06:08:13;19.63;;;17.63;;
12474;SDS011;6302;42.624;23.334;2022-08-14T06:10:42;21.73;;;19.73;;
12474;SDS011;6302;42.624;23.334;2022-08-14T06:13:10;22.47;;;20.23;;
12474;SDS011;6302;42.624;23.334;2022-08-14T06:15:38;21.40;;;19.50;;
12474;SDS011;6302;42.624;23.334;2022-08-14T06:18:06;21.90;;;19.90;;
12474;SDS011;6302;42.624;23.334;2022-08-14T06:20:33;22.77;;;20.47;;
12474;SDS011;6302;42.624;23.334;2022-08-14T06:23:00;23.67;;;21.47;;
12474;SDS011;6302;42.624;23.334;2022-08-14T06:25:27;23.83;;;21.43;;
12474;SDS011;6302;42.624;23.334;2022-08-14T06:27:54;24.10;;;21.70;;
12474;SDS011;6302;42.624;23.334;2022-08-14T06:30:22;24.70;;;22.40;;
12474;SDS011;6302;42.624;23.334;2022-08-14T06:32:52;25.83;;;23.33;;
12474;SDS011;6302;42.624;23.334;2022-08-14T06:35:19;25.10;;;22.37;;
12474;SDS011;6302;42.624;23.334;2022-08-14T06:37:48;22.70;;;20.53;;
12474;SDS011;6302;42.624;23.334;2022-08-14T06:40:16;24.30;;;21.87;;
12474;SDS011;6302;42.624;23.334;2022-08-14T06:42:45;24.57;;;22.13;;
12474;SDS011;6302;42.624;23.334;2022-08-14T06:45:12;24.97;;;22.30;;
12474;SDS011;6302;42.624;23.334;2022-08-14T06:47:40;24.10;;;21.80;;
12474;SDS011;6302;42.624;23.334;2022-08-14T06:50:10;24.03;;;21.57;;
12474;SDS011;6302;42.624;23.334;2022-08-14T06:52:38;25.67;;;22.67;;
12474;SDS011;6302;42.624;23.334;2022-08-14T06:55:07;24.80;;;22.50;;
12474;SDS011;6302;42.624;23.334;2022-08-14T06:57:36;24.80;;;22.50;;
12474;SDS011;6302;42.624;23.334;2022-08-14T07:00:05;25.87;;;23.27;;
12474;SDS011;6302;42.624;23.334;2022-08-14T07:02:34;24.87;;;22.27;;
12474;SDS011;6302;42.624;23.334;2022-08-14T07:05:19;26.70;;;23.87;;
12474;SDS011;6302;42.624;23.334;2022-08-14T07:08:03;26.77;;;23.97;;
12474;SDS011;6302;42.624;23.334;2022-08-14T07:10:30;26.97;;;24.17;;
12474;SDS011;6302;42.624;23.334;2022-08-14T07:12:58;27.67;;;24.60;;
12474;SDS011;6302;42.624;23.334;2022-08-14T07:15:25;28.47;;;25.47;;
12474;SDS011;6302;42.624;23.334;2022-08-14T07:17:51;27.30;;;24.60;;
12474;SDS011;6302;42.624;23.334;2022-08-14T07:20:19;27.07;;;24.27;;
12474;SDS011;6302;42.624;23.334;2022-08-14T07:22:46;28.43;;;25.43;;
12474;SDS011;6302;42.624;23.334;2022-08-14T07:25:13;27.57;;;24.77;;
12474;SDS011;6302;42.624;23.334;2022-08-14T07:27:40;27.63;;;24.67;;
12474;SDS011;6302;42.624;23.334;2022-08-14T07:30:08;29.50;;;26.23;;
12474;SDS011;6302;42.624;23.334;2022-08-14T07:32:36;28.70;;;25.17;;
12474;SDS011;6302;42.624;23.334;2022-08-14T07:35:02;29.50;;;26.30;;
12474;SDS011;6302;42.624;23.334;2022-08-14T07:37:31;24.90;;;22.40;;
12474;SDS011;6302;42.624;23.334;2022-08-14T07:39:58;25.90;;;23.17;;
12474;SDS011;6302;42.624;23.334;2022-08-14T07:42:24;22.93;;;19.90;;
12474;SDS011;6302;42.624;23.334;2022-08-14T07:44:52;21.30;;;19.10;;
12474;SDS011;6302;42.624;23.334;2022-08-14T07:47:19;20.30;;;18.30;;
12474;SDS011;6302;42.624;23.334;2022-08-14T07:49:52;19.40;;;17.60;;
12474;SDS011;6302;42.624;23.334;2022-08-14T07:52:24;19.07;;;17.27;;
12474;SDS011;6302;42.624;23.334;2022-08-14T07:54:52;19.07;;;17.17;;
12474;SDS011;6302;42.624;23.334;2022-08-14T07:57:19;22.30;;;19.70;;
12474;SDS011;6302;42.624;23.334;2022-08-14T07:59:46;21.87;;;19.70;;
12474;SDS011;6302;42.624;23.334;2022-08-14T08:02:14;22.70;;;20.47;;
12474;SDS011;6302;42.624;23.334;2022-08-14T08:04:42;22.53;;;20.37;;
12474;SDS011;6302;42.624;23.334;2022-08-14T08:07:11;23.03;;;20.13;;
12474;SDS011;6302;42.624;23.334;2022-08-14T08:09:40;21.80;;;19.63;;
12474;SDS011;6302;42.624;23.334;2022-08-14T08:12:11;22.10;;;19.87;;
12474;SDS011;6302;42.624;23.334;2022-08-14T08:14:40;22.03;;;19.87;;
12474;SDS011;6302;42.624;23.334;2022-08-14T08:17:08;21.83;;;19.87;;
12474;SDS011;6302;42.624;23.334;2022-08-14T08:19:37;20.63;;;18.70;;
12474;SDS011;6302;42.624;23.334;2022-08-14T08:22:04;22.47;;;20.27;;
12474;SDS011;6302;42.624;23.334;2022-08-14T08:24:31;21.53;;;19.47;;
12474;SDS011;6302;42.624;23.334;2022-08-14T08:26:59;22.27;;;20.07;;
12474;SDS011;6302;42.624;23.334;2022-08-14T08:29:28;22.17;;;19.83;;
12474;SDS011;6302;42.624;23.334;2022-08-14T08:31:55;20.73;;;18.83;;
12474;SDS011;6302;42.624;23.334;2022-08-14T08:34:23;20.60;;;18.60;;
12474;SDS011;6302;42.624;23.334;2022-08-14T08:36:50;20.00;;;18.20;;
12474;SDS011;6302;42.624;23.334;2022-08-14T08:39:17;20.63;;;18.67;;
12474;SDS011;6302;42.624;23.334;2022-08-14T08:41:44;15.13;;;13.73;;
12474;SDS011;6302;42.624;23.334;2022-08-14T08:44:12;8.70;;;7.90;;
12474;SDS011;6302;42.624;23.334;2022-08-14T08:46:42;9.53;;;8.63;;
12474;SDS011;6302;42.624;23.334;2022-08-14T08:49:09;9.67;;;8.77;;
12474;SDS011;6302;42.624;23.334;2022-08-14T08:51:36;8.90;;;7.90;;
12474;SDS011;6302;42.624;23.334;2022-08-14T08:54:04;9.13;;;8.43;;
12474;SDS011;6302;42.624;23.334;2022-08-14T08:56:33;8.53;;;7.83;;
12474;SDS011;6302;42.624;23.334;2022-08-14T08:59:01;9.17;;;8.30;;
12474;SDS011;6302;42.624;23.334;2022-08-14T09:01:28;7.87;;;7.17;;
12474;SDS011;6302;42.624;23.334;2022-08-14T09:04:01;9.60;;;8.60;;
12474;SDS011;6302;42.624;23.334;2022-08-14T09:06:29;9.23;;;8.23;;
12474;SDS011;6302;42.624;23.334;2022-08-14T09:08:56;9.17;;;8.40;;
12474;SDS011;6302;42.624;23.334;2022-08-14T09:11:22;9.40;;;8.50;;
12474;SDS011;6302;42.624;23.334;2022-08-14T09:13:50;8.20;;;7.50;;
12474;SDS011;6302;42.624;23.334;2022-08-14T09:16:18;9.37;;;8.57;;
12474;SDS011;6302;42.624;23.334;2022-08-14T09:18:46;10.13;;;9.33;;
12474;SDS011;6302;42.624;23.334;2022-08-14T09:21:16;9.30;;;8.50;;
12474;SDS011;6302;42.624;23.334;2022-08-14T09:23:44;10.53;;;9.50;;
12474;SDS011;6302;42.624;23.334;2022-08-14T09:26:11;10.53;;;9.53;;
12474;SDS011;6302;42.624;23.334;2022-08-14T09:28:38;10.90;;;10.00;;
12474;SDS011;6302;42.624;23.334;2022-08-14T09:31:05;10.53;;;9.70;;
12474;SDS011;6302;42.624;23.334;2022-08-14T09:39:36;12.33;;;11.03;;
12474;SDS011;6302;42.624;23.334;2022-08-14T09:42:18;11.17;;;10.13;;
12474;SDS011;6302;42.624;23.334;2022-08-14T09:44:59;10.60;;;9.70;;
12474;SDS011;6302;42.624;23.334;2022-08-14T09:47:39;12.83;;;11.03;;
12474;SDS011;6302;42.624;23.334;2022-08-14T09:50:14;11.43;;;10.33;;
12474;SDS011;6302;42.624;23.334;2022-08-14T09:52:49;10.60;;;9.50;;
12474;SDS011;6302;42.624;23.334;2022-08-14T09:55:17;11.07;;;10.10;;
12474;SDS011;6302;42.624;23.334;2022-08-14T09:57:45;12.40;;;11.30;;
12474;SDS011;6302;42.624;23.334;2022-08-14T10:00:13;11.13;;;9.83;;
12474;SDS011;6302;42.624;23.334;2022-08-14T10:02:53;10.43;;;9.35;;
12474;SDS011;6302;42.624;23.334;2022-08-14T10:05:28;10.87;;;9.97;;
12474;SDS011;6302;42.624;23.334;2022-08-14T10:07:59;12.33;;;11.13;;
12474;SDS011;6302;42.624;23.334;2022-08-14T10:10:28;12.83;;;11.80;;
12474;SDS011;6302;42.624;23.334;2022-08-14T10:12:57;12.77;;;11.57;;
12474;SDS011;6302;42.624;23.334;2022-08-14T10:15:26;12.97;;;11.87;;
12474;SDS011;6302;42.624;23.334;2022-08-14T10:18:04;12.27;;;11.17;;
12474;SDS011;6302;42.624;23.334;2022-08-14T10:20:34;12.77;;;11.67;;
12474;SDS011;6302;42.624;23.334;2022-08-14T10:23:10;12.38;;;11.38;;
12474;SDS011;6302;42.624;23.334;2022-08-14T10:25:41;11.60;;;10.60;;
12474;SDS011;6302;42.624;23.334;2022-08-14T10:28:10;12.20;;;11.23;;
12474;SDS011;6302;42.624;23.334;2022-08-14T10:30:40;12.73;;;11.53;;
12474;SDS011;6302;42.624;23.334;2022-08-14T10:33:08;12.00;;;10.90;;
12474;SDS011;6302;42.624;23.334;2022-08-14T10:35:38;11.07;;;10.13;;
12474;SDS011;6302;42.624;23.334;2022-08-14T10:38:06;10.87;;;9.60;;
12474;SDS011;6302;42.624;23.334;2022-08-14T10:40:36;10.77;;;9.87;;
12474;SDS011;6302;42.624;23.334;2022-08-14T10:43:14;10.90;;;9.90;;
12474;SDS011;6302;42.624;23.334;2022-08-14T10:45:50;10.90;;;9.90;;
12474;SDS011;6302;42.624;23.334;2022-08-14T10:48:19;10.77;;;9.77;;
12474;SDS011;6302;42.624;23.334;2022-08-14T10:50:45;11.27;;;10.17;;
12474;SDS011;6302;42.624;23.334;2022-08-14T10:53:25;12.23;;;11.13;;
12474;SDS011;6302;42.624;23.334;2022-08-14T10:55:57;12.13;;;11.07;;
12474;SDS011;6302;42.624;23.334;2022-08-14T10:58:28;11.90;;;10.90;;
12474;SDS011;6302;42.624;23.334;2022-08-14T11:00:58;11.27;;;10.27;;
12474;SDS011;6302;42.624;23.334;2022-08-14T11:03:39;10.07;;;9.07;;
12474;SDS011;6302;42.624;23.334;2022-08-14T11:06:10;9.27;;;8.47;;
12474;SDS011;6302;42.624;23.334;2022-08-14T11:08:43;9.13;;;8.37;;
12474;SDS011;6302;42.624;23.334;2022-08-14T11:11:12;8.27;;;7.47;;
12474;SDS011;6302;42.624;23.334;2022-08-14T11:13:39;7.87;;;7.27;;
12474;SDS011;6302;42.624;23.334;2022-08-14T11:16:10;8.10;;;7.40;;
12474;SDS011;6302;42.624;23.334;2022-08-14T11:18:38;7.20;;;6.60;;
12474;SDS011;6302;42.624;23.334;2022-08-14T11:21:09;7.40;;;6.73;;
12474;SDS011;6302;42.624;23.334;2022-08-14T11:23:40;8.00;;;7.30;;
12474;SDS011;6302;42.624;23.334;2022-08-14T11:26:10;7.10;;;6.50;;
12474;SDS011;6302;42.624;23.334;2022-08-14T11:28:44;7.00;;;6.40;;
12474;SDS011;6302;42.624;23.334;2022-08-14T11:31:12;6.70;;;6.10;;
12474;SDS011;6302;42.624;23.334;2022-08-14T11:33:40;6.83;;;6.23;;
12474;SDS011;6302;42.624;23.334;2022-08-14T11:36:08;8.03;;;7.23;;
12474;SDS011;6302;42.624;23.334;2022-08-14T11:38:38;6.50;;;6.00;;
12474;SDS011;6302;42.624;23.334;2022-08-14T11:41:07;7.03;;;6.43;;
12474;SDS011;6302;42.624;23.334;2022-08-14T11:43:40;6.73;;;6.07;;
12474;SDS011;6302;42.624;23.334;2022-08-14T11:46:07;8.67;;;6.77;;
12474;SDS011;6302;42.624;23.334;2022-08-14T11:48:43;6.40;;;5.90;;
12474;SDS011;6302;42.624;23.334;2022-08-14T11:51:12;7.38;;;6.78;;
12474;SDS011;6302;42.624;23.334;2022-08-14T11:53:49;7.70;;;7.00;;
12474;SDS011;6302;42.624;23.334;2022-08-14T11:56:16;7.68;;;7.07;;
12474;SDS011;6302;42.624;23.334;2022-08-14T11:58:48;7.77;;;7.07;;
12474;SDS011;6302;42.624;23.334;2022-08-14T12:01:17;7.33;;;6.73;;
12474;SDS011;6302;42.624;23.334;2022-08-14T12:03:51;6.83;;;6.23;;
12474;SDS011;6302;42.624;23.334;2022-08-14T12:06:19;6.70;;;6.10;;
12474;SDS011;6302;42.624;23.334;2022-08-14T12:08:46;7.17;;;6.50;;
12474;SDS011;6302;42.624;23.334;2022-08-14T12:11:18;6.37;;;5.87;;
12474;SDS011;6302;42.624;23.334;2022-08-14T12:13:46;6.47;;;5.97;;
12474;SDS011;6302;42.624;23.334;2022-08-14T12:16:14;5.85;;;5.45;;
12474;SDS011;6302;42.624;23.334;2022-08-14T12:18:42;5.17;;;4.77;;
12474;SDS011;6302;42.624;23.334;2022-08-14T12:21:13;5.80;;;5.40;;
12474;SDS011;6302;42.624;23.334;2022-08-14T12:23:42;5.60;;;5.20;;
12474;SDS011;6302;42.624;23.334;2022-08-14T12:26:12;6.30;;;5.80;;
12474;SDS011;6302;42.624;23.334;2022-08-14T12:28:42;6.07;;;5.50;;
12474;SDS011;6302;42.624;23.334;2022-08-14T12:31:14;5.70;;;5.17;;
12474;SDS011;6302;42.624;23.334;2022-08-14T12:33:53;6.38;;;5.88;;
12474;SDS011;6302;42.624;23.334;2022-08-14T12:36:21;8.13;;;6.07;;
12474;SDS011;6302;42.624;23.334;2022-08-14T12:38:48;6.67;;;6.07;;
12474;SDS011;6302;42.624;23.334;2022-08-14T12:41:16;6.65;;;6.15;;
12474;SDS011;6302;42.624;23.334;2022-08-14T12:43:46;6.72;;;6.10;;
12474;SDS011;6302;42.624;23.334;2022-08-14T12:46:35;6.17;;;5.67;;
12474;SDS011;6302;42.624;23.334;2022-08-14T12:49:08;6.53;;;6.03;;
12474;SDS011;6302;42.624;23.334;2022-08-14T12:51:36;7.23;;;6.63;;
12474;SDS011;6302;42.624;23.334;2022-08-14T12:54:11;6.97;;;6.37;;
12474;SDS011;6302;42.624;23.334;2022-08-14T12:56:39;8.15;;;7.45;;
12474;SDS011;6302;42.624;23.334;2022-08-14T12:59:07;7.88;;;7.15;;
12474;SDS011;6302;42.624;23.334;2022-08-14T13:01:36;7.50;;;6.90;;
12474;SDS011;6302;42.624;23.334;2022-08-14T13:04:05;8.07;;;7.38;;
12474;SDS011;6302;42.624;23.334;2022-08-14T13:06:34;8.00;;;7.40;;
12474;SDS011;6302;42.624;23.334;2022-08-14T13:09:03;7.53;;;6.93;;
12474;SDS011;6302;42.624;23.334;2022-08-14T13:11:33;7.90;;;7.20;;
12474;SDS011;6302;42.624;23.334;2022-08-14T13:14:02;7.47;;;6.88;;
12474;SDS011;6302;42.624;23.334;2022-08-14T13:16:29;8.10;;;7.33;;
12474;SDS011;6302;42.624;23.334;2022-08-14T13:18:59;7.93;;;7.20;;
12474;SDS011;6302;42.624;23.334;2022-08-14T13:21:27;7.50;;;6.80;;
12474;SDS011;6302;42.624;23.334;2022-08-14T13:23:56;6.40;;;5.97;;
12474;SDS011;6302;42.624;23.334;2022-08-14T13:26:24;5.83;;;5.33;;
12474;SDS011;6302;42.624;23.334;2022-08-14T13:28:51;5.30;;;4.75;;
12474;SDS011;6302;42.624;23.334;2022-08-14T13:31:19;5.40;;;4.77;;
12474;SDS011;6302;42.624;23.334;2022-08-14T13:33:48;6.07;;;5.47;;
12474;SDS011;6302;42.624;23.334;2022-08-14T13:36:17;6.10;;;5.50;;
12474;SDS011;6302;42.624;23.334;2022-08-14T13:38:44;4.97;;;4.47;;
12474;SDS011;6302;42.624;23.334;2022-08-14T13:41:14;4.60;;;4.07;;
12474;SDS011;6302;42.624;23.334;2022-08-14T13:43:45;5.03;;;4.53;;
12474;SDS011;6302;42.624;23.334;2022-08-14T13:46:15;4.32;;;3.97;;
12474;SDS011;6302;42.624;23.334;2022-08-14T13:48:43;4.40;;;4.10;;
12474;SDS011;6302;42.624;23.334;2022-08-14T13:51:10;4.50;;;4.07;;
12474;SDS011;6302;42.624;23.334;2022-08-14T13:53:43;4.90;;;4.50;;
12474;SDS011;6302;42.624;23.334;2022-08-14T13:56:12;5.47;;;4.30;;
12474;SDS011;6302;42.624;23.334;2022-08-14T13:58:40;4.30;;;3.90;;
12474;SDS011;6302;42.624;23.334;2022-08-14T14:01:08;4.73;;;4.33;;
12474;SDS011;6302;42.624;23.334;2022-08-14T14:03:37;4.90;;;4.40;;
12474;SDS011;6302;42.624;23.334;2022-08-14T14:06:05;4.47;;;4.07;;
12474;SDS011;6302;42.624;23.334;2022-08-14T14:08:33;4.57;;;4.27;;
12474;SDS011;6302;42.624;23.334;2022-08-14T14:11:03;5.07;;;4.57;;
12474;SDS011;6302;42.624;23.334;2022-08-14T14:13:30;4.70;;;4.20;;
12474;SDS011;6302;42.624;23.334;2022-08-14T14:15:57;4.70;;;4.20;;
12474;SDS011;6302;42.624;23.334;2022-08-14T14:18:26;5.03;;;4.63;;
12474;SDS011;6302;42.624;23.334;2022-08-14T14:20:54;8.70;;;4.60;;
12474;SDS011;6302;42.624;23.334;2022-08-14T14:23:22;5.33;;;4.70;;
12474;SDS011;6302;42.624;23.334;2022-08-14T14:25:51;5.37;;;4.60;;
12474;SDS011;6302;42.624;23.334;2022-08-14T14:28:20;4.93;;;4.53;;
12474;SDS011;6302;42.624;23.334;2022-08-14T14:30:53;4.83;;;4.47;;
12474;SDS011;6302;42.624;23.334;2022-08-14T14:33:20;4.80;;;4.05;;
12474;SDS011;6302;42.624;23.334;2022-08-14T14:35:49;4.93;;;4.53;;
12474;SDS011;6302;42.624;23.334;2022-08-14T14:38:16;4.73;;;4.33;;
12474;SDS011;6302;42.624;23.334;2022-08-14T14:40:43;6.10;;;4.80;;
12474;SDS011;6302;42.624;23.334;2022-08-14T14:43:12;5.20;;;4.80;;
12474;SDS011;6302;42.624;23.334;2022-08-14T14:45:42;4.57;;;4.18;;
12474;SDS011;6302;42.624;23.334;2022-08-14T14:48:11;5.05;;;4.57;;